Back to Top

My Weather Underground Personal Weather Station Historical Data with Graphs...

Delerius Weather Station Historical Data
 
Daily Summary for October 24, 2020 Units:  English    Metric   Both
Daily Weekly Monthly Yearly
  Current: High: Low: Average:
Temperature: 46.4 °F 46.6 °F 43.2 °F 44.6 °F
Dew Point: 42.6 °F 42.8 °F 40.5 °F 41.5 °F
Humidity: 87% 91% 87% 89%
Wind Speed: 14.8mph 20mph 8.8mph 14.2mph
Wind Gust: 24mph 31mph - -
WindSouth - - South
Pressure: 29.6 in 29.7 in 29.6 in -
Precipitation: 0 in      
 
 
Tabular Data for October 24, 2020
Time Temperature Dew Point Pressure Wind Wind Speed Wind Gust Humidity Rainfall Rate (Hourly) solar
00:04 44.4 °F 41.7 °F 29.7 in SSW 12.1 mph 16 mph 90% 0 in 0 W/m2
00:09 44.4 °F 41.5 °F 29.7 in SSW 12.3 mph 16 mph 89.4% 0 in 0 W/m2
00:14 44.4 °F 41.4 °F 29.7 in SSW 11.1 mph 16 mph 89% 0 in 0 W/m2
00:19 44.6 °F 41.5 °F 29.7 in SSW 11.9 mph 16 mph 89% 0 in 0 W/m2
00:24 44.6 °F 41.7 °F 29.7 in SSW 13.5 mph 18 mph 89% 0 in 0 W/m2
00:29 44.8 °F 41.7 °F 29.7 in SSW 13.9 mph 20 mph 89% 0 in 0 W/m2
00:34 44.8 °F 41.7 °F 29.7 in SSW 13.5 mph 19 mph 89% 0 in 0 W/m2
00:39 44.6 °F 41.5 °F 29.7 in SSW 14.2 mph 20 mph 89% 0 in 0 W/m2
00:44 44.4 °F 41.4 °F 29.7 in SSW 14.9 mph 20 mph 89% 0 in 0 W/m2
00:49 44.2 °F 41.2 °F 29.7 in SSW 13.9 mph 18 mph 89% 0 in 0 W/m2
00:54 43.9 °F 40.8 °F 29.7 in SSW 13.2 mph 18 mph 89% 0 in 0 W/m2
00:59 43.5 °F 40.6 °F 29.7 in SSW 13.9 mph 18 mph 89.8% 0 in 0 W/m2
01:04 43.3 °F 40.6 °F 29.7 in SSW 13.5 mph 18 mph 90% 0 in 0 W/m2
01:09 43.3 °F 40.6 °F 29.7 in SSW 12.9 mph 16 mph 90% 0 in 0 W/m2
01:14 43.3 °F 40.6 °F 29.7 in SSW 13 mph 19 mph 90.3% 0 in 0 W/m2
01:19 43.3 °F 40.8 °F 29.7 in SSW 14 mph 19 mph 91% 0 in 0 W/m2
01:24 43.3 °F 40.8 °F 29.7 in SSW 13.6 mph 19 mph 91% 0 in 0 W/m2
01:29 43.3 °F 40.8 °F 29.7 in SSW 14.8 mph 20 mph 91% 0 in 0 W/m2
01:34 43.5 °F 41.2 °F 29.7 in SSW 16.7 mph 23 mph 91% 0 in 0 W/m2
01:39 43.9 °F 41 °F 29.7 in SSW 16.8 mph 23 mph 90.1% 0 in 0 W/m2
01:44 43.9 °F 41.2 °F 29.7 in SSW 16.5 mph 22 mph 90% 0 in 0 W/m2
01:49 43.7 °F 41 °F 29.7 in SSW 15.2 mph 20 mph 90% 0 in 0 W/m2
01:54 43.7 °F 41 °F 29.7 in SSW 15.5 mph 23 mph 90% 0 in 0 W/m2
01:59 43.7 °F 41 °F 29.7 in SSW 16.2 mph 22 mph 90% 0 in 0 W/m2
02:04 43.7 °F 41 °F 29.7 in SSW 16 mph 21 mph 90% 0 in 0 W/m2
02:09 43.7 °F 41 °F 29.7 in SSW 15.3 mph 22 mph 90% 0 in 0 W/m2
02:14 43.9 °F 41.2 °F 29.7 in SSW 16 mph 23 mph 90% 0 in 0 W/m2
02:19 43.9 °F 40.8 °F 29.7 in SSW 14.4 mph 23 mph 89.3% 0 in 0 W/m2
02:24 43.9 °F 40.8 °F 29.7 in SSW 15.3 mph 20 mph 89.4% 0 in 0 W/m2
02:29 44.1 °F 41 °F 29.7 in SSW 14.7 mph 21 mph 89% 0 in 0 W/m2
02:34 43.9 °F 40.8 °F 29.7 in South 12.4 mph 16 mph 89% 0 in 0 W/m2
02:39 43.7 °F 40.6 °F 29.7 in South 10.9 mph 18 mph 89% 0 in 0 W/m2
02:44 43.5 °F 40.6 °F 29.7 in South 12.8 mph 22 mph 89.2% 0 in 0 W/m2
02:49 43.5 °F 40.8 °F 29.7 in South 16.3 mph 23 mph 89.8% 0 in 0 W/m2
02:54 43.3 °F 40.6 °F 29.7 in South 15.9 mph 23 mph 90% 0 in 0 W/m2
02:59 43.3 °F 40.6 °F 29.7 in South 14.2 mph 23 mph 90% 0 in 0 W/m2
03:04 43.2 °F 40.5 °F 29.7 in South 15 mph 20 mph 90% 0 in 0 W/m2
03:09 43.3 °F 40.6 °F 29.7 in South 14 mph 20 mph 90% 0 in 0 W/m2
03:14 43.3 °F 40.6 °F 29.7 in South 12.8 mph 20 mph 90% 0 in 0 W/m2
03:19 43.3 °F 40.5 °F 29.7 in South 13 mph 18 mph 90% 0 in 0 W/m2
03:24 43.2 °F 40.5 °F 29.7 in South 13 mph 20 mph 90% 0 in 0 W/m2
03:29 43.2 °F 40.5 °F 29.7 in South 13.7 mph 20 mph 90.2% 0 in 0 W/m2
03:34 43.3 °F 40.8 °F 29.7 in South 14.7 mph 21 mph 90.8% 0 in 0 W/m2
03:39 43.5 °F 41 °F 29.7 in South 12.7 mph 21 mph 91% 0 in 0 W/m2
03:44 44.1 °F 41.5 °F 29.7 in South 12.3 mph 20 mph 91% 0 in 0 W/m2
03:49 44.4 °F 42.1 °F 29.7 in South 14 mph 23 mph 91% 0 in 0 W/m2
03:54 45 °F 42.1 °F 29.7 in South 16 mph 23 mph 90.1% 0 in 0 W/m2
03:59 45 °F 42.3 °F 29.7 in South 15.6 mph 25 mph 90% 0 in 0 W/m2
04:04 45 °F 42.3 °F 29.7 in South 17 mph 25 mph 90% 0 in 0 W/m2
04:09 45 °F 42.3 °F 29.7 in South 14.1 mph 22 mph 90% 0 in 0 W/m2
04:14 45 °F 42.3 °F 29.6 in South 14.5 mph 21 mph 90% 0 in 0 W/m2
04:19 45 °F 42.3 °F 29.6 in South 14.3 mph 23 mph 90% 0 in 0 W/m2
04:24 45 °F 42.3 °F 29.6 in South 13.4 mph 23 mph 90% 0 in 0 W/m2
04:29 45.1 °F 42.4 °F 29.6 in South 15.7 mph 27 mph 90% 0 in 0 W/m2
04:34 45.1 °F 42.1 °F 29.6 in South 18 mph 27 mph 89.1% 0 in 0 W/m2
04:39 45.3 °F 42.3 °F 29.6 in South 14.5 mph 24 mph 89% 0 in 0 W/m2
04:44 45.3 °F 42.3 °F 29.6 in South 13.7 mph 24 mph 89% 0 in 0 W/m2
04:49 45.3 °F 42.3 °F 29.6 in South 15.3 mph 24 mph 89% 0 in 0 W/m2
04:54 45.3 °F 42.3 °F 29.6 in South 15 mph 25 mph 89% 0 in 0 W/m2
04:59 45.3 °F 42.3 °F 29.6 in South 13.7 mph 25 mph 89% 0 in 0 W/m2
05:04 45.3 °F 42.3 °F 29.6 in South 11.2 mph 18 mph 89% 0 in 0 W/m2
05:09 45.1 °F 42.1 °F 29.6 in South 10.9 mph 19 mph 89% 0 in 0 W/m2
05:14 45.1 °F 42.1 °F 29.6 in South 10.3 mph 23 mph 89% 0 in 0 W/m2
05:19 45.1 °F 42.1 °F 29.6 in South 12.7 mph 23 mph 89% 0 in 0 W/m2
05:24 45.3 °F 42.3 °F 29.6 in South 13.7 mph 25 mph 89% 0 in 0 W/m2
05:29 45.1 °F 42.1 °F 29.6 in South 11.4 mph 20 mph 89% 0 in 0 W/m2
05:34 45.1 °F 42.1 °F 29.6 in South 10.1 mph 16 mph 89% 0 in 0 W/m2
05:39 45.1 °F 42.1 °F 29.6 in SSE 9.3 mph 13 mph 89% 0 in 0 W/m2
05:44 45 °F 41.9 °F 29.6 in SSE 8.8 mph 15 mph 88.6% 0 in 0 W/m2
05:49 44.8 °F 41.5 °F 29.6 in SSE 9.3 mph 15 mph 88.5% 0 in 0 W/m2
05:54 44.8 °F 41.9 °F 29.6 in SSE 10.5 mph 18 mph 89.3% 0 in 0 W/m2
05:59 45.1 °F 42.1 °F 29.6 in SSE 9.8 mph 18 mph 89.2% 0 in 0 W/m2
06:04 45.3 °F 42.3 °F 29.6 in South 14.8 mph 25 mph 89% 0 in 0 W/m2
06:09 45.7 °F 42.6 °F 29.6 in South 16.6 mph 28 mph 88.7% 0 in 0 W/m2
06:14 45.9 °F 42.6 °F 29.6 in South 17.9 mph 31 mph 88% 0 in 0 W/m2
06:19 46 °F 42.8 °F 29.6 in South 18.6 mph 31 mph 88% 0 in 0 W/m2
06:24 46.2 °F 42.8 °F 29.6 in South 19.3 mph 27 mph 87.5% 0 in 0 W/m2
06:29 46.6 °F 42.8 °F 29.6 in South 16.5 mph 26 mph 87% 0 in 0 W/m2
06:34 46.6 °F 42.8 °F 29.6 in South 19.4 mph 30 mph 87% 0 in 0 W/m2
06:39 46.4 °F 42.8 °F 29.6 in South 20 mph 30 mph 87% 0 in 0 W/m2
06:44 46.4 °F 42.6 °F 29.6 in South 17.8 mph 30 mph 87% 0 in 0 W/m2
06:49 46.4 °F 42.8 °F 29.6 in South 16.3 mph 28 mph 87% 0 in 0 W/m2
06:54 46.6 °F 42.8 °F 29.6 in South 16.8 mph 25 mph 87% 0 in 0 W/m2
06:59 46.4 °F 42.6 °F 29.6 in South 14.8 mph 24 mph 87% 0 in 0 W/m2
North Lincolnshire Weather
Compliments of Weather Underground - 2 mb

Data updates at regular intervals.